Time;durP1;ratioP1;P1;durP2;ratioP2;P2;SDS_P1;SDS_P2;PMS_P1;PMS_P2;Temp;Humidity;BMP_temperature;BMP_pressure;BME280_temperature;BME280_humidity;BME280_pressure;Samples;Min_cycle;Max_cycle;Signal;HPM_P1;HPM_P2
2022/03/20 00:01:43;;;;;;;34.40;18.50;;;;;;;6.09;35.06;102758.53;4924753;28;101010;-82
2022/03/20 00:04:09;;;;;;;31.40;19.03;;;;;;;5.97;35.13;102739.13;4924031;28;97238;-82
2022/03/20 00:06:34;;;;;;;33.00;18.27;;;;;;;6.03;35.13;102753.16;4921358;28;96866;-82
2022/03/20 00:09:00;;;;;;;31.93;18.47;;;;;;;6.08;35.22;102761.97;4904288;28;101193;-82
2022/03/20 00:11:28;;;;;;;31.30;18.73;;;;;;;5.85;35.15;102735.34;4938107;28;97989;-82
2022/03/20 00:13:54;;;;;;;32.73;17.97;;;;;;;5.90;35.47;102746.75;4925591;28;97252;-83
2022/03/20 00:16:23;;;;;;;37.03;17.37;;;;;;;5.95;35.55;102749.50;4905450;28;97242;-83
2022/03/20 00:18:49;;;;;;;36.27;19.27;;;;;;;6.05;35.32;102751.47;4904228;28;101693;-83
2022/03/20 00:21:15;;;;;;;39.20;18.40;;;;;;;5.84;35.08;102740.50;4905276;28;102023;-82
2022/03/20 00:23:44;;;;;;;34.63;19.07;;;;;;;5.80;36.10;102752.59;4921600;28;97014;-84
2022/03/20 00:26:09;;;;;;;36.13;18.83;;;;;;;5.62;35.76;102715.66;4911732;28;96917;-82
2022/03/20 00:28:35;;;;;;;40.83;19.70;;;;;;;5.67;35.82;102746.19;4923673;28;101183;-83
2022/03/20 00:31:00;;;;;;;31.70;19.10;;;;;;;5.61;35.67;102725.19;4920270;28;102317;-82
2022/03/20 00:33:26;;;;;;;33.33;18.33;;;;;;;5.51;35.78;102720.59;4904406;28;96902;-83
2022/03/20 00:35:52;;;;;;;35.10;19.27;;;;;;;5.65;36.28;102742.66;4932142;28;97434;-84
2022/03/20 00:38:18;;;;;;;32.87;19.37;;;;;;;5.56;35.81;102718.13;4920458;28;101252;-83
2022/03/20 00:40:43;;;;;;;34.87;19.40;;;;;;;5.73;35.87;102748.06;4930307;28;101124;-83
2022/03/20 00:43:09;;;;;;;32.43;19.30;;;;;;;5.37;35.88;102696.78;4922505;28;97062;-83
2022/03/20 00:45:35;;;;;;;34.53;18.03;;;;;;;5.60;35.79;102740.78;4936619;28;97167;-82
2022/03/20 00:48:01;;;;;;;30.90;18.77;;;;;;;5.50;36.19;102718.84;4917835;28;101693;-82
2022/03/20 00:50:28;;;;;;;37.97;19.70;;;;;;;5.53;35.85;102716.31;4917623;28;101413;-83
2022/03/20 00:52:55;;;;;;;33.23;18.73;;;;;;;5.41;35.80;102705.56;4906928;28;97677;-83
2022/03/20 00:55:21;;;;;;;34.53;19.63;;;;;;;5.56;35.57;102724.19;4928636;28;96776;-86
2022/03/20 00:57:46;;;;;;;30.77;17.93;;;;;;;5.54;36.26;102731.09;4919671;28;101703;-82
2022/03/20 01:00:12;;;;;;;36.37;19.33;;;;;;;5.60;36.06;102736.44;4911643;28;101151;-83
2022/03/20 01:02:42;;;;;;;35.87;18.77;;;;;;;5.55;36.13;102714.59;4922447;28;97072;-84
2022/03/20 01:05:08;;;;;;;32.50;18.40;;;;;;;5.64;35.64;102727.88;4939865;28;97049;-82
2022/03/20 01:07:35;;;;;;;35.50;19.20;;;;;;;5.45;36.18;102726.53;4923091;28;100581;-83
2022/03/20 01:10:01;;;;;;;34.67;18.77;;;;;;;5.26;36.60;102713.00;4912352;28;101099;-82
2022/03/20 01:12:28;;;;;;;35.70;18.10;;;;;;;5.30;36.20;102704.44;4923165;28;97373;-82
2022/03/20 01:14:55;;;;;;;36.00;18.20;;;;;;;5.38;35.90;102719.41;4920567;28;97082;-82
2022/03/20 01:17:21;;;;;;;32.93;18.30;;;;;;;5.44;36.42;102719.56;4935736;28;98368;-82
2022/03/20 01:19:47;;;;;;;35.93;19.43;;;;;;;5.37;36.51;102704.59;4935458;28;101754;-83
2022/03/20 01:22:12;;;;;;;31.67;18.20;;;;;;;5.44;36.11;102716.97;4926157;28;96755;-82
2022/03/20 01:24:38;;;;;;;33.03;18.07;;;;;;;5.35;36.30;102718.44;4918303;28;96942;-83
2022/03/20 01:27:04;;;;;;;31.17;18.50;;;;;;;5.31;36.40;102721.81;4919501;28;101371;-82
2022/03/20 01:29:30;;;;;;;36.37;18.83;;;;;;;5.29;36.15;102713.06;4919595;28;100867;-83
2022/03/20 01:31:56;;;;;;;31.10;17.40;;;;;;;5.36;36.34;102715.88;4919485;28;96693;-82
2022/03/20 01:34:21;;;;;;;35.07;18.80;;;;;;;5.35;36.31;102714.13;4925203;28;97152;-84
2022/03/20 01:36:47;;;;;;;33.50;18.07;;;;;;;5.40;36.21;102720.31;4937497;28;98130;-82
2022/03/20 01:39:13;;;;;;;31.70;18.47;;;;;;;5.36;36.33;102709.78;4902146;28;101756;-83
2022/03/20 01:41:38;;;;;;;31.93;18.50;;;;;;;5.28;36.47;102706.97;4927524;28;96718;-83
2022/03/20 01:44:04;;;;;;;30.80;17.20;;;;;;;5.22;36.58;102692.06;4905122;28;96941;-82
2022/03/20 01:46:33;;;;;;;32.47;17.57;;;;;;;5.30;36.08;102702.69;4921239;28;97544;-82
2022/03/20 01:48:59;;;;;;;34.63;17.90;;;;;;;5.08;36.56;102679.53;4918573;28;101712;-83
2022/03/20 01:54:10;;;;;;;36.73;18.57;;;;;;;5.17;36.16;102711.91;4922101;28;97042;-82
2022/03/20 01:56:36;;;;;;;33.33;18.53;;;;;;;5.14;36.71;102706.63;4918814;28;102039;-82
2022/03/20 01:59:03;;;;;;;31.07;17.27;;;;;;;5.12;36.88;102707.41;4919084;28;101285;-83
2022/03/20 02:01:29;;;;;;;34.83;18.00;;;;;;;4.78;36.72;102645.78;4919628;28;97116;-82
2022/03/20 02:03:55;;;;;;;35.27;18.20;;;;;;;5.08;36.52;102698.66;4920552;28;97171;-82
2022/03/20 02:06:22;;;;;;;32.93;18.63;;;;;;;4.97;36.95;102702.69;4904149;28;101468;-83
2022/03/20 02:08:48;;;;;;;31.43;18.10;;;;;;;4.94;37.03;102692.19;4916762;28;101270;-83
2022/03/20 02:11:13;;;;;;;31.43;17.87;;;;;;;4.78;37.18;102671.81;4931539;28;96834;-82
2022/03/20 02:13:39;;;;;;;34.40;18.67;;;;;;;5.01;37.22;102695.88;4923394;28;97165;-83
2022/03/20 02:16:05;;;;;;;34.20;18.37;;;;;;;5.02;37.04;102689.81;4936346;28;101385;-82
2022/03/20 02:18:31;;;;;;;34.17;18.87;;;;;;;5.00;36.98;102689.75;4926060;28;97503;-82
2022/03/20 02:21:02;;;;;;;33.97;18.23;;;;;;;4.91;36.90;102679.97;4940960;28;96835;-83
2022/03/20 02:23:28;;;;;;;30.02;18.65;;;;;;;4.95;37.06;102693.97;4901409;28;97107;-82
2022/03/20 02:25:54;;;;;;;33.03;18.23;;;;;;;4.93;37.17;102691.31;4918354;28;101680;-83
2022/03/20 02:28:19;;;;;;;32.40;18.30;;;;;;;4.90;36.99;102692.97;4918243;28;101225;-84
2022/03/20 02:30:46;;;;;;;32.37;16.47;;;;;;;4.78;37.00;102677.03;4919064;28;97009;-82
2022/03/20 02:33:12;;;;;;;29.37;17.87;;;;;;;4.88;36.82;102694.63;4919367;28;97288;-83
2022/03/20 02:35:39;;;;;;;28.90;16.23;;;;;;;4.76;36.97;102670.03;4904281;28;101202;-83
2022/03/20 02:38:07;;;;;;;35.00;17.93;;;;;;;4.79;36.92;102684.84;4914132;28;101516;-83
2022/03/20 02:40:32;;;;;;;37.73;18.73;;;;;;;4.92;36.98;102699.97;4914472;28;97200;-83
2022/03/20 02:43:01;;;;;;;32.80;17.00;;;;;;;4.92;37.09;102699.97;4924574;28;96870;-82
2022/03/20 02:45:30;;;;;;;35.97;18.73;;;;;;;4.84;37.24;102704.09;4920701;28;101452;-82
2022/03/20 02:47:58;;;;;;;29.90;16.53;;;;;;;4.80;37.43;102702.25;4919186;28;101869;-83
2022/03/20 02:50:30;;;;;;;31.40;17.20;;;;;;;4.80;37.14;102706.53;4915277;28;98050;-83
2022/03/20 02:52:58;;;;;;;30.23;18.30;;;;;;;4.67;37.24;102681.91;4939765;28;97211;-83
2022/03/20 02:55:38;;;;;;;33.97;17.30;;;;;;;4.79;37.24;102705.66;4936512;28;99990;-83
2022/03/20 02:58:07;;;;;;;33.97;18.10;;;;;;;4.70;37.56;102703.69;4932665;28;97932;-82
2022/03/20 03:00:33;;;;;;;30.40;18.30;;;;;;;4.67;37.55;102702.72;4919200;28;97316;-83
2022/03/20 03:03:01;;;;;;;36.07;18.40;;;;;;;4.57;37.72;102690.28;4918788;28;96897;-82
2022/03/20 03:05:28;;;;;;;33.67;17.90;;;;;;;4.65;37.59;102712.22;4907589;28;101255;-83
2022/03/20 03:10:57;;;;;;;32.17;16.93;;;;;;;4.59;37.69;102709.44;4923063;28;97837;-82
2022/03/20 03:13:32;;;;;;;30.57;17.60;;;;;;;4.64;37.95;102721.72;4924406;28;96893;-84
2022/03/20 03:16:01;;;;;;;34.40;17.97;;;;;;;4.59;37.82;102717.25;4918337;28;101362;-82
2022/03/20 03:18:27;;;;;;;33.00;16.93;;;;;;;4.52;37.83;102695.38;4925598;28;101382;-82
2022/03/20 03:20:53;;;;;;;32.47;18.00;;;;;;;4.50;37.87;102703.13;4937361;28;97207;-84
2022/03/20 03:23:20;;;;;;;28.50;16.73;;;;;;;4.52;37.99;102721.38;4924474;28;96937;-82
2022/03/20 03:25:46;;;;;;;33.03;18.13;;;;;;;4.53;38.26;102712.75;4930988;28;101233;-83
2022/03/20 03:28:13;;;;;;;30.53;19.03;;;;;;;4.34;38.19;102685.31;4913067;28;101452;-82
2022/03/20 03:30:44;;;;;;;32.17;16.97;;;;;;;4.49;38.06;102724.78;4937967;28;97189;-83
2022/03/20 03:33:11;;;;;;;33.00;17.87;;;;;;;4.38;38.63;102720.97;4909700;28;97032;-84
2022/03/20 03:35:44;;;;;;;30.10;17.47;;;;;;;4.28;38.28;102696.44;4908144;28;101861;-84
2022/03/20 03:38:15;;;;;;;34.03;18.30;;;;;;;4.41;38.43;102722.78;4928773;28;101448;-83
2022/03/20 03:40:44;;;;;;;34.75;17.77;;;;;;;4.44;38.44;102728.97;4937898;28;96718;-82
2022/03/20 03:43:10;;;;;;;30.67;18.10;;;;;;;4.36;38.36;102733.03;4921403;28;96949;-82
2022/03/20 03:45:36;;;;;;;32.73;17.90;;;;;;;4.35;38.52;102727.81;4904561;28;101143;-82
2022/03/20 03:48:02;;;;;;;30.90;17.03;;;;;;;4.34;38.79;102726.94;4921562;28;97323;-83
2022/03/20 03:50:28;;;;;;;36.33;18.23;;;;;;;4.13;39.18;102701.19;4905090;28;97358;-84
2022/03/20 03:52:54;;;;;;;35.57;17.93;;;;;;;4.20;38.96;102702.25;4921802;28;97184;-83
2022/03/20 03:55:19;;;;;;;35.03;16.93;;;;;;;4.16;38.61;102705.56;4919768;28;101626;-82
2022/03/20 03:57:50;;;;;;;36.30;18.40;;;;;;;4.06;38.89;102694.88;4904868;28;101393;-84
2022/03/20 04:00:17;;;;;;;30.67;17.67;;;;;;;4.26;39.00;102728.41;4918048;28;96933;-83
2022/03/20 04:02:46;;;;;;;33.73;18.17;;;;;;;4.18;39.26;102730.78;4932000;28;97276;-81
2022/03/20 04:05:14;;;;;;;32.53;18.47;;;;;;;4.17;39.20;102723.81;4920884;28;97956;-82
2022/03/20 04:07:40;;;;;;;32.07;18.10;;;;;;;4.11;39.29;102726.25;4921116;28;101452;-85
2022/03/20 04:10:06;;;;;;;31.80;17.23;;;;;;;4.03;39.83;102725.09;4904728;28;97061;-83
2022/03/20 04:12:33;;;;;;;36.03;17.90;;;;;;;4.03;39.53;102719.91;4920820;28;96836;-83
2022/03/20 04:15:02;;;;;;;36.60;19.77;;;;;;;4.13;39.67;102724.56;4920665;28;101371;-82
2022/03/20 04:17:31;;;;;;;30.53;17.57;;;;;;;4.04;39.69;102730.38;4923346;28;99916;-82
2022/03/20 04:19:58;;;;;;;36.03;19.60;;;;;;;3.96;39.63;102712.78;4904742;28;96840;-83
2022/03/20 04:22:27;;;;;;;46.03;19.07;;;;;;;4.08;39.35;102726.16;4920327;28;96749;-83
2022/03/20 04:24:53;;;;;;;32.80;18.33;;;;;;;4.06;39.53;102720.00;4920074;28;101395;-83
2022/03/20 04:27:19;;;;;;;31.97;18.80;;;;;;;4.05;39.54;102719.13;4936407;28;99727;-82
2022/03/20 04:29:45;;;;;;;37.03;18.00;;;;;;;3.77;39.61;102695.72;4917160;28;97270;-83
2022/03/20 04:32:11;;;;;;;34.47;18.67;;;;;;;4.02;39.73;102734.63;4926362;28;97727;-82
2022/03/20 04:34:38;;;;;;;34.83;18.73;;;;;;;3.84;39.63;102701.16;4936359;28;97871;-82
2022/03/20 04:37:05;;;;;;;34.53;18.87;;;;;;;3.95;39.77;102721.38;4928152;28;101057;-83
2022/03/20 04:39:33;;;;;;;36.33;19.30;;;;;;;3.95;39.21;102726.59;4904587;28;97176;-83
2022/03/20 04:41:59;;;;;;;40.93;20.17;;;;;;;3.96;39.72;102724.03;4921016;28;97445;-82
2022/03/20 04:44:25;;;;;;;36.20;19.17;;;;;;;3.91;40.03;102729.94;4939994;28;98765;-83
2022/03/20 04:46:52;;;;;;;30.70;18.87;;;;;;;3.82;40.15;102726.19;4935684;28;97972;-85
2022/03/20 05:00:15;;;;;;;40.23;20.43;;;;;;;3.63;39.87;102693.53;4944907;28;97302;-83
2022/03/20 05:02:41;;;;;;;40.80;19.13;;;;;;;3.82;39.94;102721.00;4921078;28;98185;-87
2022/03/20 05:05:09;;;;;;;39.33;19.00;;;;;;;3.53;39.84;102686.28;4954700;28;97640;-84
2022/03/20 05:07:35;;;;;;;40.43;21.13;;;;;;;3.73;40.08;102733.72;4937476;28;98032;-83
2022/03/20 05:15:30;;;;;;;34.90;19.60;;;;;;;3.61;40.25;102733.31;4938777;28;101606;-83
2022/03/20 05:17:56;;;;;;;36.53;19.83;;;;;;;3.55;40.33;102735.69;4936246;28;98030;-83
2022/03/20 05:20:23;;;;;;;35.07;19.57;;;;;;;3.61;40.29;102748.91;4909675;28;97121;-82
2022/03/20 05:22:51;;;;;;;36.70;18.37;;;;;;;3.63;40.32;102752.41;4920384;28;97018;-83
2022/03/20 05:25:17;;;;;;;36.40;19.30;;;;;;;3.69;40.12;102762.13;4919106;28;101505;-83
2022/03/20 05:27:43;;;;;;;40.17;20.70;;;;;;;3.67;40.17;102763.81;4903420;28;101287;-85
2022/03/20 05:30:10;;;;;;;39.03;19.97;;;;;;;3.71;40.05;102763.94;4912531;28;96988;-82
2022/03/20 05:32:37;;;;;;;35.83;20.03;;;;;;;3.58;40.32;102744.47;4916932;28;97219;-82
2022/03/20 05:35:08;;;;;;;35.70;19.60;;;;;;;3.70;40.35;102774.28;4931384;28;101788;-82
2022/03/20 05:37:34;;;;;;;36.50;19.73;;;;;;;3.69;39.72;102773.38;4934086;28;97573;-82
2022/03/20 05:39:59;;;;;;;34.07;19.47;;;;;;;3.72;40.14;102778.69;4916721;28;97181;-83
2022/03/20 05:42:25;;;;;;;37.27;19.67;;;;;;;3.56;40.43;102779.91;4933891;28;97078;-83
2022/03/20 05:44:51;;;;;;;35.90;20.23;;;;;;;3.65;39.96;102778.44;4923072;28;102820;-83
2022/03/20 05:47:17;;;;;;;34.37;19.87;;;;;;;3.73;40.35;102782.19;4952640;28;98091;-83
2022/03/20 05:49:42;;;;;;;37.47;19.30;;;;;;;3.65;40.35;102774.13;4911705;28;96795;-85
2022/03/20 05:52:08;;;;;;;40.77;20.93;;;;;;;3.71;40.26;102787.31;4919879;28;97114;-83
2022/03/20 05:54:35;;;;;;;34.53;20.30;;;;;;;3.68;40.26;102779.44;4923663;28;101151;-83
2022/03/20 05:59:44;;;;;;;38.80;21.47;;;;;;;3.86;40.40;102790.41;4937205;28;96774;-83
2022/03/20 06:02:10;;;;;;;38.60;20.50;;;;;;;3.93;40.09;102786.31;4919362;28;96963;-83
2022/03/20 06:04:37;;;;;;;40.07;21.03;;;;;;;3.88;39.95;102784.41;4912742;28;101510;-84
2022/03/20 06:07:03;;;;;;;37.70;19.93;;;;;;;4.04;40.14;102795.34;4914946;28;101791;-83
2022/03/20 06:09:28;;;;;;;38.13;19.57;;;;;;;4.14;40.17;102791.31;4923051;28;97008;-83
2022/03/20 06:11:55;;;;;;;42.07;20.27;;;;;;;4.31;40.09;102784.94;4935968;28;96856;-84
2022/03/20 06:14:21;;;;;;;33.70;19.03;;;;;;;4.33;40.18;102787.56;4915567;28;101587;-84
2022/03/20 06:16:48;;;;;;;38.00;20.00;;;;;;;4.53;39.63;102791.66;4913110;28;101502;-84
2022/03/20 06:19:15;;;;;;;37.13;21.00;;;;;;;4.69;39.52;102806.03;4919329;28;98067;-84
2022/03/20 06:21:42;;;;;;;34.47;20.13;;;;;;;4.82;39.07;102807.25;4926943;28;97410;-83
2022/03/20 06:24:08;;;;;;;37.20;19.70;;;;;;;4.77;39.05;102772.44;4933497;28;101715;-83
2022/03/20 06:26:34;;;;;;;35.07;19.83;;;;;;;5.18;38.94;102811.75;4903155;28;101859;-83
2022/03/20 06:29:00;;;;;;;37.83;19.70;;;;;;;5.34;38.70;102810.44;4903112;28;97506;-83
2022/03/20 06:31:26;;;;;;;34.07;20.07;;;;;;;5.53;37.95;102814.44;4919947;28;97112;-84
2022/03/20 06:33:51;;;;;;;34.07;19.60;;;;;;;5.62;37.90;102807.72;4899851;28;101159;-84
2022/03/20 06:36:17;;;;;;;35.60;20.50;;;;;;;5.69;37.73;102800.94;4902429;28;100998;-84
2022/03/20 06:38:43;;;;;;;39.87;21.37;;;;;;;5.86;37.42;102817.03;4903674;28;96782;-84
2022/03/20 06:41:09;;;;;;;38.97;21.73;;;;;;;6.12;37.22;102813.34;4911081;28;96834;-83
2022/03/20 06:43:36;;;;;;;36.03;19.47;;;;;;;6.26;36.94;102815.41;4918450;28;102270;-83
2022/03/20 06:46:03;;;;;;;38.97;20.33;;;;;;;6.28;36.61;102806.78;4900072;28;101489;-83
2022/03/20 06:48:28;;;;;;;35.37;19.27;;;;;;;6.41;36.58;102812.28;4915344;28;96785;-82
2022/03/20 06:50:54;;;;;;;36.53;20.67;;;;;;;6.60;35.53;102826.59;4915441;28;96697;-83
2022/03/20 06:53:20;;;;;;;31.27;19.50;;;;;;;6.41;34.85;102802.72;4911529;28;101451;-83
2022/03/20 06:55:46;;;;;;;36.10;20.27;;;;;;;6.62;34.59;102835.38;4933436;28;100935;-84
2022/03/20 06:58:13;;;;;;;33.93;18.83;;;;;;;6.81;34.69;102827.09;4901715;28;97192;-84
2022/03/20 07:00:40;;;;;;;34.73;18.27;;;;;;;6.99;34.02;102826.59;4916292;28;96970;-82
2022/03/20 07:03:07;;;;;;;35.63;18.20;;;;;;;6.96;34.18;102831.75;4900702;28;101753;-82
2022/03/20 07:05:36;;;;;;;34.63;19.43;;;;;;;7.06;33.82;102827.59;4915518;28;98107;-80
2022/03/20 07:08:03;;;;;;;35.53;18.60;;;;;;;6.95;33.60;102793.41;4933588;28;97159;-78
2022/03/20 07:10:29;;;;;;;34.03;18.60;;;;;;;7.01;33.73;102790.91;4918430;28;97525;-79
2022/03/20 07:15:41;;;;;;;36.90;18.83;;;;;;;7.24;32.99;102805.34;4935666;28;101587;-79
2022/03/20 07:18:07;;;;;;;36.60;18.77;;;;;;;7.23;32.40;102808.78;4926076;28;97271;-82
2022/03/20 07:20:32;;;;;;;34.17;19.47;;;;;;;7.24;32.98;102786.16;4932321;28;96806;-81
2022/03/20 07:23:00;;;;;;;33.23;19.03;;;;;;;7.46;32.47;102824.91;4909737;28;98130;-83
2022/03/20 07:30:56;;;;;;;37.40;19.60;;;;;;;8.00;32.30;102818.00;4921981;28;97115;-81
2022/03/20 07:33:24;;;;;;;35.20;18.87;;;;;;;8.36;31.88;102825.53;4898387;28;101586;-82
2022/03/20 07:35:53;;;;;;;33.13;19.17;;;;;;;8.47;31.79;102824.88;4898705;28;101934;-80
2022/03/20 07:38:19;;;;;;;35.75;21.08;;;;;;;8.52;31.52;102812.69;4909164;28;97141;-80
2022/03/20 07:40:44;;;;;;;36.15;20.08;;;;;;;8.91;31.45;102838.56;4927875;28;97193;-82
2022/03/20 07:43:10;;;;;;;34.22;19.98;;;;;;;9.08;31.03;102830.91;4912484;28;102234;-79
2022/03/20 07:45:35;;;;;;;33.80;20.38;;;;;;;9.15;30.44;102839.72;4928641;28;98469;-81
2022/03/20 07:48:02;;;;;;;34.78;21.27;;;;;;;9.11;29.86;102833.56;4915516;28;97223;-79
2022/03/20 07:50:28;;;;;;;35.28;20.73;;;;;;;9.12;30.38;102829.19;4910567;28;97614;-80
2022/03/20 07:52:56;;;;;;;33.10;20.70;;;;;;;9.17;30.42;102798.69;4919103;28;101196;-79
2022/03/20 07:55:23;;;;;;;37.65;21.55;;;;;;;9.44;30.49;102821.69;4915012;28;101769;-80
2022/03/20 07:57:49;;;;;;;36.58;21.75;;;;;;;9.55;29.35;102819.19;4920424;28;97260;-80
2022/03/20 08:00:17;;;;;;;40.05;21.90;;;;;;;9.76;29.25;102816.75;4951691;28;97125;-81
2022/03/20 08:02:44;;;;;;;37.60;21.92;;;;;;;9.90;28.90;102824.75;4919960;28;101087;-81
2022/03/20 08:05:09;;;;;;;35.15;22.02;;;;;;;10.21;28.90;102825.88;4915676;28;101424;-81
2022/03/20 08:07:36;;;;;;;34.00;21.08;;;;;;;10.56;28.07;102830.50;4914070;28;97080;-81
2022/03/20 08:10:07;;;;;;;37.47;22.70;;;;;;;10.16;28.28;102843.34;4923136;28;97276;-81
2022/03/20 08:12:32;;;;;;;37.67;21.13;;;;;;;10.19;28.84;102838.97;4915966;28;102591;-80
2022/03/20 08:14:58;;;;;;;38.70;23.00;;;;;;;9.94;28.48;102834.41;4911518;28;101214;-80
2022/03/20 08:17:24;;;;;;;37.80;22.05;;;;;;;10.11;28.47;102829.28;4917621;28;96814;-80
2022/03/20 08:19:50;;;;;;;34.85;22.42;;;;;;;10.50;28.39;102840.97;4901288;28;97266;-81
2022/03/20 08:22:15;;;;;;;36.83;22.00;;;;;;;10.76;28.25;102821.00;4929375;28;101275;-80
2022/03/20 08:24:42;;;;;;;32.70;20.55;;;;;;;11.09;27.99;102816.75;4920653;28;97329;-81
2022/03/20 08:27:07;;;;;;;37.22;21.38;;;;;;;11.44;28.22;102835.25;4917142;28;97486;-80
2022/03/20 08:29:33;;;;;;;35.38;21.85;;;;;;;11.61;27.34;102834.41;4914038;28;96893;-79
2022/03/20 08:31:59;;;;;;;35.88;21.88;;;;;;;11.60;27.15;102830.88;4919458;28;98564;-80
2022/03/20 08:34:25;;;;;;;33.05;21.52;;;;;;;11.63;27.25;102815.09;4897332;28;100838;-80
2022/03/20 08:36:50;;;;;;;36.58;23.02;;;;;;;11.81;26.98;102808.09;4916951;28;97336;-81
2022/03/20 08:39:16;;;;;;;35.38;21.30;;;;;;;12.17;27.16;102834.44;4914029;28;97355;-80
2022/03/20 08:41:43;;;;;;;32.20;21.98;;;;;;;12.06;27.01;102828.31;4943448;28;97938;-80
2022/03/20 08:44:08;;;;;;;32.65;21.42;;;;;;;12.01;26.89;102824.78;4910155;28;101735;-80
2022/03/20 08:46:34;;;;;;;34.50;20.95;;;;;;;12.26;26.82;102812.50;4919663;28;96780;-79
2022/03/20 08:49:05;;;;;;;32.60;19.38;;;;;;;12.71;26.52;102804.47;4915791;28;97029;-80
2022/03/20 08:51:32;;;;;;;32.08;20.45;;;;;;;12.85;26.30;102794.75;4913023;28;97739;-81
2022/03/20 08:53:58;;;;;;;32.38;21.38;;;;;;;12.98;26.26;102800.88;4899361;28;101318;-81
2022/03/20 08:56:24;;;;;;;33.63;21.85;;;;;;;13.46;26.03;102823.47;4918642;28;97230;-81
2022/03/20 08:58:51;;;;;;;34.00;21.90;;;;;;;13.47;25.68;102819.97;4916405;28;97383;-83
2022/03/20 09:01:17;;;;;;;32.40;20.85;;;;;;;13.69;25.94;102807.47;4919540;28;98202;-81
2022/03/20 09:03:44;;;;;;;35.65;20.70;;;;;;;13.98;25.85;102796.66;4930230;28;97517;-83
2022/03/20 09:06:10;;;;;;;33.60;21.77;;;;;;;14.01;25.55;102809.84;4928997;28;97878;-79
2022/03/20 09:08:36;;;;;;;33.60;20.90;;;;;;;14.04;25.06;102799.25;4924493;28;97474;-82
2022/03/20 09:11:02;;;;;;;34.25;21.42;;;;;;;14.03;25.04;102792.22;4914261;28;101946;-80
2022/03/20 09:13:28;;;;;;;33.85;21.15;;;;;;;14.26;25.17;102797.28;4916301;28;98217;-86
2022/03/20 09:18:59;;;;;;;30.60;20.98;;;;;;;14.44;24.70;102798.84;4913745;28;97442;-88
2022/03/20 09:21:23;;;;;;;28.85;19.85;;;;;;;14.56;24.53;102805.81;4934669;28;97646;-83
2022/03/20 09:23:49;;;;;;;32.28;21.45;;;;;;;14.32;24.54;102788.44;4915644;28;101766;-82
2022/03/20 09:26:15;;;;;;;30.98;20.30;;;;;;;14.23;24.66;102784.13;4914001;28;96861;-83
2022/03/20 09:28:40;;;;;;;31.40;21.38;;;;;;;14.41;25.10;102779.53;4932935;28;97235;-82
2022/03/20 09:31:08;;;;;;;31.02;20.98;;;;;;;14.66;24.69;102796.88;4928367;28;97565;-82
2022/03/20 09:33:34;;;;;;;31.75;20.92;;;;;;;14.94;24.28;102788.59;4915299;28;101623;-82
2022/03/20 09:36:00;;;;;;;31.38;21.17;;;;;;;15.10;24.65;102794.56;4914245;28;97399;-83
2022/03/20 09:38:26;;;;;;;33.90;22.40;;;;;;;15.16;24.34;102798.00;4898873;28;97234;-81
2022/03/20 09:40:52;;;;;;;31.95;21.05;;;;;;;15.17;23.73;102794.44;4950234;28;97512;-82
2022/03/20 09:43:18;;;;;;;32.92;20.52;;;;;;;15.22;24.12;102791.75;4913545;28;98539;-85
2022/03/20 09:45:44;;;;;;;28.95;19.77;;;;;;;14.96;24.23;102797.41;4913635;28;97270;-83
2022/03/20 09:48:13;;;;;;;30.27;19.77;;;;;;;15.06;23.36;102796.38;4915210;28;97702;-82
2022/03/20 09:50:38;;;;;;;33.22;20.52;;;;;;;14.81;24.07;102785.25;4915890;28;101258;-81
2022/03/20 09:53:04;;;;;;;27.63;19.63;;;;;;;15.10;24.24;102792.78;4895357;28;101383;-81
2022/03/20 09:55:29;;;;;;;31.02;20.42;;;;;;;15.37;23.58;102788.00;4917506;28;96823;-82
2022/03/20 09:57:58;;;;;;;28.02;19.42;;;;;;;15.61;23.56;102798.19;4919559;28;97813;-80
2022/03/20 10:00:24;;;;;;;28.52;18.83;;;;;;;15.60;23.26;102782.34;4914200;28;97795;-82
2022/03/20 10:02:50;;;;;;;27.50;19.10;;;;;;;15.61;23.43;102771.72;4917981;28;98045;-83
2022/03/20 10:05:21;;;;;;;30.05;19.40;;;;;;;15.86;22.95;102779.31;4919802;28;96843;-82
2022/03/20 10:07:47;;;;;;;29.37;20.37;;;;;;;15.60;23.22;102767.34;4916154;28;97483;-84
2022/03/20 10:10:32;;;;;;;28.50;18.48;;;;;;;15.28;23.08;102773.13;4919157;28;101842;-83
2022/03/20 10:13:00;;;;;;;31.55;18.92;;;;;;;15.16;23.40;102775.97;4931828;28;101098;-83
2022/03/20 10:15:28;;;;;;;31.90;18.65;;;;;;;15.15;23.57;102769.81;4934102;28;96879;-82
2022/03/20 10:18:10;;;;;;;28.95;18.63;;;;;;;15.27;23.00;102779.34;4916423;28;97308;-84
2022/03/20 10:20:50;;;;;;;29.17;17.42;;;;;;;15.37;23.39;102777.41;4932531;28;99183;-90
2022/03/20 10:23:39;;;;;;;25.98;17.50;;;;;;;15.51;22.92;102771.91;4905599;28;101622;-91
2022/03/20 10:26:13;;;;;;;28.02;18.38;;;;;;;15.33;23.07;102747.47;4905750;28;96780;-91
2022/03/20 10:28:49;;;;;;;25.15;18.63;;;;;;;14.76;23.32;102760.63;4900502;28;96859;-86
2022/03/20 10:31:23;;;;;;;25.50;17.20;;;;;;;14.96;24.13;102776.25;4935602;28;98557;-79
2022/03/20 10:34:01;;;;;;;26.65;17.95;;;;;;;14.75;23.68;102773.84;4916569;28;101032;-78
2022/03/20 10:36:27;;;;;;;28.42;18.02;;;;;;;14.58;24.33;102771.44;4928398;28;97415;-79
2022/03/20 10:38:53;;;;;;;26.17;18.33;;;;;;;14.50;24.39;102753.84;4917415;28;97440;-81
2022/03/20 10:41:27;;;;;;;26.30;17.05;;;;;;;14.52;24.25;102769.75;4917932;28;101552;-80
2022/03/20 10:43:56;;;;;;;26.75;17.13;;;;;;;13.94;24.40;102765.91;4926976;28;98401;-80
2022/03/20 10:46:30;;;;;;;25.48;17.02;;;;;;;13.79;24.82;102764.28;4929110;28;97486;-79
2022/03/20 10:49:00;;;;;;;29.45;18.20;;;;;;;13.82;24.80;102748.41;4913323;28;97027;-77
2022/03/20 10:51:37;;;;;;;30.33;18.17;;;;;;;14.11;24.29;102760.47;4915773;28;97476;-76
2022/03/20 10:54:22;;;;;;;25.80;16.10;;;;;;;14.05;24.44;102765.81;4930813;28;101553;-77
2022/03/20 10:56:59;;;;;;;23.08;15.75;;;;;;;13.75;24.19;102743.19;4904020;28;96655;-76
2022/03/20 10:59:31;;;;;;;21.65;15.55;;;;;;;13.89;24.38;102757.16;4915184;28;96846;-76
2022/03/20 11:01:58;;;;;;;25.52;15.07;;;;;;;13.68;24.21;102725.69;4909636;28;101990;-77
2022/03/20 11:04:23;;;;;;;26.40;14.80;;;;;;;13.64;24.60;102743.28;4922559;28;97874;-80
2022/03/20 11:06:54;;;;;;;21.52;14.38;;;;;;;13.53;24.43;102747.81;4913132;28;97040;-73
2022/03/20 11:09:20;;;;;;;20.30;13.93;;;;;;;13.49;24.44;102741.66;4915800;28;97327;-86
2022/03/20 11:11:58;;;;;;;23.85;15.13;;;;;;;13.47;24.54;102737.28;4916495;28;101739;-86
2022/03/20 11:14:26;;;;;;;25.70;14.65;;;;;;;13.48;24.74;102731.13;4916152;28;98133;-86
2022/03/20 11:16:57;;;;;;;20.88;12.00;;;;;;;13.41;23.51;102734.69;4921247;28;96768;-86
2022/03/20 11:19:25;;;;;;;26.63;15.07;;;;;;;13.29;24.00;102726.00;4931950;28;98122;-85
2022/03/20 11:21:53;;;;;;;25.38;14.57;;;;;;;13.29;24.98;102725.09;4915740;28;101174;-83
2022/03/20 11:24:19;;;;;;;17.65;12.32;;;;;;;13.24;24.29;102724.25;4912329;28;101563;-86
2022/03/20 11:26:49;;;;;;;17.88;11.38;;;;;;;13.22;23.97;102718.09;4906765;28;96983;-86
2022/03/20 11:29:15;;;;;;;16.40;10.10;;;;;;;13.11;23.39;102699.69;4912592;28;96789;-87
2022/03/20 11:31:41;;;;;;;16.60;11.15;;;;;;;12.95;22.91;102709.47;4917803;28;98229;-85
2022/03/20 11:34:08;;;;;;;21.65;12.23;;;;;;;12.85;23.76;102716.53;4917731;28;101250;-87
2022/03/20 11:36:59;;;;;;;17.40;12.20;;;;;;;12.67;24.02;102717.53;4918511;28;96784;-85
2022/03/20 11:39:24;;;;;;;21.70;12.95;;;;;;;12.52;24.36;102704.44;4899164;28;96901;-86
2022/03/20 11:42:19;;;;;;;18.27;12.10;;;;;;;12.41;24.03;102699.19;4918653;28;100516;-86
2022/03/20 11:45:18;;;;;;;18.33;11.27;;;;;;;12.42;24.25;102698.34;4919230;28;98114;-85
2022/03/20 11:47:49;;;;;;;18.38;12.20;;;;;;;12.33;24.82;102674.63;4901856;28;96844;-87
2022/03/20 11:50:19;;;;;;;18.65;11.55;;;;;;;12.56;24.87;102694.75;4906475;28;97565;-85